Time;durP1;ratioP1;P1;durP2;ratioP2;P2;SDS_P1;SDS_P2;PMS_P1;PMS_P2;Temp;Humidity;BMP_temperature;BMP_pressure;BME280_temperature;BME280_humidity;BME280_pressure;Samples;Min_cycle;Max_cycle;Signal;HPM_P1;HPM_P2
2022/01/13 00:00:42;;;;;;;198.25;157.77;;;;;;;14.52;28.33;95551.91;4964050;28;20169;-66
2022/01/13 00:03:13;;;;;;;199.60;156.80;;;;;;;14.47;28.08;95542.31;4968677;28;20050;-66
2022/01/13 00:05:39;;;;;;;203.45;161.63;;;;;;;14.49;28.25;95551.53;4964717;28;20078;-67
2022/01/13 00:08:04;;;;;;;196.43;155.48;;;;;;;14.48;28.09;95547.31;4968669;28;20414;-66
2022/01/13 00:10:30;;;;;;;193.18;152.90;;;;;;;14.48;28.14;95557.31;4970272;28;20046;-66
2022/01/13 00:13:05;;;;;;;192.68;153.45;;;;;;;14.47;28.23;95559.25;4966558;28;20049;-66
2022/01/13 00:15:46;;;;;;;195.07;154.98;;;;;;;14.47;28.25;95556.56;4969731;28;20477;-66
2022/01/13 00:18:16;;;;;;;192.00;152.70;;;;;;;14.46;28.26;95568.47;4965646;28;20059;-66
2022/01/13 00:26:25;;;;;;;201.10;157.88;;;;;;;14.45;28.00;95572.31;4914131;29;20052;-66
2022/01/13 00:28:53;;;;;;;191.52;151.60;;;;;;;14.45;28.32;95575.03;4897801;29;20050;-66
2022/01/13 00:31:25;;;;;;;208.75;165.73;;;;;;;14.45;28.20;95579.63;4930678;28;22183;-66
2022/01/13 00:33:54;;;;;;;194.15;153.73;;;;;;;14.46;28.09;95573.09;4962085;28;20100;-66
2022/01/13 00:36:28;;;;;;;197.00;155.18;;;;;;;14.45;28.12;95576.94;4966028;28;20101;-66
2022/01/13 00:38:55;;;;;;;196.68;154.57;;;;;;;14.45;28.15;95579.63;4965229;28;20054;-66
2022/01/13 00:41:23;;;;;;;198.82;157.98;;;;;;;14.45;28.20;95582.31;4971649;28;20042;-66
2022/01/13 00:43:48;;;;;;;198.15;157.05;;;;;;;14.43;28.03;95588.09;4966977;28;20196;-66
2022/01/13 00:46:23;;;;;;;202.13;159.60;;;;;;;14.45;28.15;95577.72;4963390;28;21940;-66
2022/01/13 00:48:51;;;;;;;191.38;151.80;;;;;;;14.45;28.21;95591.16;4966804;28;20121;-66
2022/01/13 00:51:17;;;;;;;196.55;155.40;;;;;;;14.45;28.19;95596.56;4968122;28;20404;-66
2022/01/13 00:53:43;;;;;;;194.25;155.45;;;;;;;14.46;28.01;95608.09;4969559;28;20133;-66
2022/01/13 00:56:08;;;;;;;194.57;153.02;;;;;;;14.46;28.14;95606.16;4967346;28;20049;-66
2022/01/13 00:58:35;;;;;;;200.00;158.10;;;;;;;14.47;27.98;95605.00;4967499;28;20058;-66
2022/01/13 01:01:03;;;;;;;193.45;153.48;;;;;;;14.47;27.94;95610.38;4966129;28;20046;-66
2022/01/13 01:03:29;;;;;;;201.88;158.85;;;;;;;14.47;27.88;95604.25;4967588;28;20427;-66
2022/01/13 01:05:55;;;;;;;190.48;151.40;;;;;;;14.47;27.75;95604.25;4967812;28;20046;-66
2022/01/13 01:08:21;;;;;;;195.52;155.00;;;;;;;14.48;27.83;95611.16;4968778;28;20053;-66
2022/01/13 01:10:49;;;;;;;191.15;152.25;;;;;;;14.48;27.87;95613.84;4969216;28;20042;-66
2022/01/13 01:13:21;;;;;;;191.35;153.00;;;;;;;14.47;27.87;95610.38;4972081;28;20141;-66
2022/01/13 01:15:51;;;;;;;192.00;151.05;;;;;;;14.48;27.78;95620.00;4969433;28;20142;-66
2022/01/13 01:21:01;;;;;;;202.80;161.05;;;;;;;14.49;27.83;95618.06;4960258;28;20368;-66
2022/01/13 01:23:27;;;;;;;193.60;151.57;;;;;;;14.48;28.01;95616.53;4957745;28;20065;-66
2022/01/13 01:28:46;;;;;;;195.25;154.05;;;;;;;14.48;27.79;95608.47;4968388;28;20046;-66
2022/01/13 01:31:13;;;;;;;194.85;152.63;;;;;;;14.48;27.76;95603.84;4967095;28;20110;-66
2022/01/13 01:33:43;;;;;;;206.35;164.23;;;;;;;14.48;28.22;95611.94;4964207;28;20073;-66
2022/01/13 01:36:12;;;;;;;198.65;158.68;;;;;;;14.49;27.80;95621.53;4965090;28;20043;-66
2022/01/13 01:38:40;;;;;;;201.82;159.38;;;;;;;14.49;27.72;95623.47;4963982;28;20058;-66
2022/01/13 01:41:05;;;;;;;193.32;154.27;;;;;;;14.48;27.76;95621.91;4972366;28;20118;-66
2022/01/13 01:43:31;;;;;;;197.02;155.50;;;;;;;14.49;27.58;95618.84;4965157;28;20039;-66
2022/01/13 01:45:59;;;;;;;193.40;154.07;;;;;;;14.50;27.86;95622.31;4965961;28;20052;-66
2022/01/13 01:48:26;;;;;;;196.32;155.43;;;;;;;14.50;27.69;95630.38;4967017;28;20061;-66
2022/01/13 01:50:58;;;;;;;196.25;154.57;;;;;;;14.50;27.72;95635.75;4967334;28;20102;-65
2022/01/13 01:53:24;;;;;;;197.75;156.55;;;;;;;14.49;27.71;95640.38;4965678;28;21070;-66
2022/01/13 01:55:54;;;;;;;198.32;157.35;;;;;;;14.50;27.79;95639.22;4964605;28;20119;-66
2022/01/13 01:58:20;;;;;;;205.80;162.73;;;;;;;14.52;27.44;95636.13;4962683;28;20042;-66
2022/01/13 02:00:47;;;;;;;198.02;158.05;;;;;;;14.50;27.73;95625.75;4962705;28;20047;-66
2022/01/13 02:03:15;;;;;;;207.20;163.23;;;;;;;14.48;27.45;95630.00;4960215;28;20054;-66
2022/01/13 02:05:40;;;;;;;201.15;159.75;;;;;;;14.48;27.47;95620.00;4956517;28;21578;-66
2022/01/13 02:08:06;;;;;;;194.63;154.82;;;;;;;14.49;27.68;95613.47;4964998;28;20039;-66
2022/01/13 02:10:31;;;;;;;199.73;159.15;;;;;;;14.49;27.55;95596.53;4965064;28;20384;-66
2022/01/13 02:13:04;;;;;;;192.73;154.00;;;;;;;14.49;27.68;95591.16;4966634;28;20097;-66
2022/01/13 02:17:56;;;;;;;190.18;151.65;;;;;;;14.48;27.45;95595.00;4965921;28;20054;-66
2022/01/13 02:20:22;;;;;;;199.00;157.57;;;;;;;14.47;27.62;95594.25;4966697;28;20043;-66
2022/01/13 02:22:48;;;;;;;194.43;155.55;;;;;;;14.48;27.38;95592.31;4963244;28;20058;-66
2022/01/13 02:25:15;;;;;;;207.52;166.00;;;;;;;14.48;27.53;95595.00;4963481;28;20069;-66
2022/01/13 02:27:42;;;;;;;199.38;157.13;;;;;;;14.47;27.72;95591.53;4966351;28;20055;-66
2022/01/13 02:30:09;;;;;;;192.85;153.93;;;;;;;14.49;27.39;95594.63;4967318;28;20057;-66
2022/01/13 02:32:35;;;;;;;209.80;166.20;;;;;;;14.49;27.48;95591.16;4960887;28;20041;-66
2022/01/13 02:35:01;;;;;;;195.05;154.10;;;;;;;14.49;27.39;95589.22;4967009;28;20088;-66
2022/01/13 02:37:26;;;;;;;191.77;153.18;;;;;;;14.49;27.58;95581.16;4966238;28;20102;-66
2022/01/13 02:39:52;;;;;;;189.38;150.32;;;;;;;14.49;27.46;95583.06;4963879;28;20058;-66
2022/01/13 02:42:18;;;;;;;194.45;152.50;;;;;;;14.48;27.59;95574.22;4963986;28;20112;-66
2022/01/13 02:45:00;;;;;;;197.30;156.95;;;;;;;14.49;27.59;95570.38;4965786;28;20970;-66
2022/01/13 02:50:04;;;;;;;191.93;152.70;;;;;;;14.48;27.53;95543.88;4964802;28;20049;-66
2022/01/13 02:52:30;;;;;;;192.13;150.60;;;;;;;14.47;27.49;95542.31;4961672;28;20047;-66
2022/01/13 02:54:56;;;;;;;190.80;151.75;;;;;;;14.48;27.45;95546.56;4984288;28;20061;-66
2022/01/13 02:57:21;;;;;;;193.50;155.13;;;;;;;14.48;27.47;95535.78;4965512;28;20086;-67
2022/01/13 02:59:47;;;;;;;192.43;153.57;;;;;;;14.47;27.59;95540.41;4965410;28;20156;-66
2022/01/13 03:02:12;;;;;;;197.13;156.40;;;;;;;14.48;27.49;95538.47;4973065;28;20054;-65
2022/01/13 03:04:45;;;;;;;199.73;158.00;;;;;;;14.47;27.28;95532.31;4969436;28;20076;-66
2022/01/13 03:07:10;;;;;;;191.45;151.90;;;;;;;14.47;27.40;95534.25;4969019;28;20117;-66
2022/01/13 03:09:36;;;;;;;202.00;161.65;;;;;;;14.46;27.42;95538.09;4970303;28;20066;-66
2022/01/13 03:12:01;;;;;;;192.20;152.48;;;;;;;14.47;27.27;95547.72;4989725;28;20045;-66
2022/01/13 03:14:27;;;;;;;191.50;152.07;;;;;;;14.45;27.28;95545.41;4970257;28;20063;-66
2022/01/13 03:16:53;;;;;;;196.70;156.80;;;;;;;14.45;27.40;95544.66;4969495;28;20038;-66
2022/01/13 03:19:20;;;;;;;191.65;152.52;;;;;;;14.46;27.55;95546.19;4970557;28;20120;-66
2022/01/13 03:21:45;;;;;;;191.82;150.38;;;;;;;14.47;27.45;95547.72;4971491;28;20048;-66
2022/01/13 03:24:11;;;;;;;195.30;153.88;;;;;;;14.47;27.33;95551.16;4966373;28;20054;-66
2022/01/13 03:26:38;;;;;;;194.80;154.43;;;;;;;14.47;27.42;95558.47;4968449;28;20713;-66
2022/01/13 03:31:39;;;;;;;196.95;156.88;;;;;;;14.48;27.33;95568.84;4969473;28;20145;-66
2022/01/13 03:34:05;;;;;;;191.65;150.80;;;;;;;14.47;27.45;95563.88;4968743;28;20047;-66
2022/01/13 03:36:30;;;;;;;198.95;156.18;;;;;;;14.47;27.31;95570.00;4964294;28;20047;-66
2022/01/13 03:38:56;;;;;;;194.45;153.75;;;;;;;14.47;27.29;95569.25;4969791;28;20042;-66
2022/01/13 03:41:22;;;;;;;189.52;149.65;;;;;;;14.48;27.28;95578.84;4970124;28;20290;-66
2022/01/13 03:43:51;;;;;;;194.85;155.00;;;;;;;14.46;27.16;95565.03;4966575;28;20091;-66
2022/01/13 03:46:17;;;;;;;202.75;160.68;;;;;;;14.45;27.17;95575.03;4968415;28;20074;-66
2022/01/13 03:48:43;;;;;;;193.52;154.52;;;;;;;14.45;27.08;95572.31;4970760;28;20054;-66
2022/01/13 03:51:09;;;;;;;195.95;154.43;;;;;;;14.45;27.23;95582.31;4972279;28;20100;-66
2022/01/13 03:54:28;;;;;;;203.40;159.98;;;;;;;14.44;27.39;95586.94;4967276;28;20050;-66
2022/01/13 03:57:40;;;;;;;192.48;148.25;;;;;;;14.44;27.16;95578.88;4965461;28;20115;-66
2022/01/13 04:01:03;;;;;;;199.40;156.90;;;;;;;14.45;27.23;95571.56;4969591;28;20070;-65
2022/01/13 04:03:28;;;;;;;194.73;151.68;;;;;;;14.46;27.39;95573.84;4925848;28;20075;-66
2022/01/13 04:06:27;;;;;;;194.65;153.40;;;;;;;14.46;27.07;95575.78;4927915;28;20055;-66
2022/01/13 04:08:54;;;;;;;191.98;149.45;;;;;;;14.46;27.33;95579.25;4958203;28;20050;-66
2022/01/13 04:11:28;;;;;;;196.68;154.52;;;;;;;14.46;27.00;95578.47;4964439;28;20145;-67
2022/01/13 04:14:00;;;;;;;196.68;155.07;;;;;;;14.47;27.05;95585.41;4967185;28;22134;-66
2022/01/13 04:16:31;;;;;;;192.98;150.57;;;;;;;14.47;27.02;95585.41;4965528;28;20554;-66
2022/01/13 04:19:04;;;;;;;192.38;151.93;;;;;;;14.45;27.01;95583.09;4967187;28;20047;-66
2022/01/13 04:21:34;;;;;;;202.27;159.13;;;;;;;14.46;27.14;95581.16;4974134;28;20070;-66
2022/01/13 04:24:03;;;;;;;201.55;159.95;;;;;;;14.45;27.27;95582.31;4966887;28;20064;-66
2022/01/13 04:26:30;;;;;;;195.07;153.85;;;;;;;14.45;27.22;95590.41;4967885;28;20125;-66
2022/01/13 04:29:30;;;;;;;194.13;153.55;;;;;;;14.44;27.17;95586.19;4968706;28;20553;-66
2022/01/13 04:31:49;;;;;;;193.82;153.27;;;;;;;14.44;27.08;95589.63;4967086;28;20531;-66
2022/01/13 04:34:15;;;;;;;194.90;153.20;;;;;;;14.44;27.22;95602.31;4963965;28;20069;-66
2022/01/13 04:36:40;;;;;;;195.65;154.52;;;;;;;14.44;27.23;95613.88;4967360;28;20122;-66
2022/01/13 04:39:08;;;;;;;194.27;153.45;;;;;;;14.42;27.06;95616.19;4971578;28;20034;-67
2022/01/13 04:41:35;;;;;;;191.95;152.00;;;;;;;14.42;26.94;95621.56;4970168;28;20083;-66
2022/01/13 04:44:13;;;;;;;191.93;152.57;;;;;;;14.40;26.85;95623.84;4967774;28;20173;-66
2022/01/13 04:46:40;;;;;;;190.45;150.23;;;;;;;14.40;27.01;95628.47;4970399;28;20060;-66
2022/01/13 04:49:07;;;;;;;195.00;154.43;;;;;;;14.43;26.92;95635.78;4971797;28;20582;-66
2022/01/13 04:51:33;;;;;;;194.77;153.00;;;;;;;14.41;26.95;95628.09;4971957;28;20077;-66
2022/01/13 04:53:59;;;;;;;200.02;158.27;;;;;;;14.41;26.89;95622.72;4968088;28;20058;-66
2022/01/13 04:56:30;;;;;;;192.23;151.70;;;;;;;14.41;27.00;95617.34;4970442;28;21749;-66
2022/01/13 04:58:57;;;;;;;191.60;152.07;;;;;;;14.42;26.81;95607.34;4969682;28;20081;-66
2022/01/13 05:01:23;;;;;;;193.88;153.45;;;;;;;14.42;26.95;95610.78;4966052;28;20109;-66
2022/01/13 05:03:48;;;;;;;194.35;152.57;;;;;;;14.43;26.87;95612.31;4969206;28;20050;-66
2022/01/13 05:06:17;;;;;;;194.32;153.25;;;;;;;14.43;26.90;95606.94;4963612;28;20123;-66
2022/01/13 05:08:44;;;;;;;191.90;151.20;;;;;;;14.44;27.02;95602.31;4966211;28;20462;-67
2022/01/13 05:11:09;;;;;;;203.68;162.65;;;;;;;14.43;26.77;95604.25;4963439;28;20098;-66
2022/01/13 05:13:35;;;;;;;195.82;156.05;;;;;;;14.44;26.73;95605.03;4967391;28;20130;-66
2022/01/13 05:16:01;;;;;;;192.98;154.63;;;;;;;14.44;26.67;95600.41;4966361;28;20174;-66
2022/01/13 05:18:41;;;;;;;191.38;151.63;;;;;;;14.45;26.76;95603.88;4969860;28;20043;-66
2022/01/13 05:21:18;;;;;;;193.05;153.52;;;;;;;14.44;26.99;95605.78;4970747;28;20053;-66
2022/01/13 05:23:43;;;;;;;201.40;157.88;;;;;;;14.45;26.77;95601.16;4964539;28;20089;-68
2022/01/13 05:26:10;;;;;;;199.10;158.07;;;;;;;14.45;26.84;95609.25;4967700;28;20161;-66
2022/01/13 05:28:37;;;;;;;197.25;156.27;;;;;;;14.45;27.03;95609.25;4967533;28;20046;-65
2022/01/13 05:31:03;;;;;;;198.00;156.18;;;;;;;14.46;26.87;95603.47;4964084;28;20058;-66
2022/01/13 05:33:28;;;;;;;197.13;155.85;;;;;;;14.46;26.80;95586.56;4966301;28;20057;-66
2022/01/13 05:35:54;;;;;;;199.85;158.68;;;;;;;14.46;27.02;95584.63;4965159;28;20054;-66
2022/01/13 05:38:19;;;;;;;191.90;152.82;;;;;;;14.46;26.69;95589.25;4966709;28;20069;-67
2022/01/13 05:40:45;;;;;;;201.35;160.32;;;;;;;14.47;26.81;95598.84;4964141;28;20043;-69
2022/01/13 05:43:10;;;;;;;200.52;159.20;;;;;;;14.47;26.86;95596.94;4965468;28;20077;-66
2022/01/13 05:45:36;;;;;;;190.93;152.07;;;;;;;14.48;26.69;95592.31;4963198;28;20061;-65
2022/01/13 05:48:03;;;;;;;198.52;158.27;;;;;;;14.47;26.94;95588.84;4963396;28;20039;-65
2022/01/13 05:50:30;;;;;;;193.98;153.25;;;;;;;14.47;26.83;95586.16;4966246;28;21465;-65
2022/01/13 05:52:57;;;;;;;209.43;165.48;;;;;;;14.47;26.87;95585.41;4966192;28;20555;-65
2022/01/13 05:55:23;;;;;;;210.15;167.63;;;;;;;14.47;26.59;95586.16;4965544;28;20534;-66
2022/01/13 05:57:49;;;;;;;193.38;152.80;;;;;;;14.48;26.96;95592.31;4981425;28;20066;-65
2022/01/13 06:00:18;;;;;;;196.88;156.95;;;;;;;14.48;26.80;95595.78;4964817;28;20062;-65
2022/01/13 06:02:44;;;;;;;193.35;151.95;;;;;;;14.48;26.74;95586.94;4959436;28;20406;-65
2022/01/13 06:05:10;;;;;;;199.18;158.38;;;;;;;14.49;26.65;95597.31;4959586;28;20122;-65
2022/01/13 06:07:37;;;;;;;196.23;154.07;;;;;;;14.49;26.54;95591.16;4964211;28;20051;-66
2022/01/13 06:10:05;;;;;;;194.07;152.30;;;;;;;14.48;26.55;95587.69;4963013;28;20051;-65
2022/01/13 06:12:36;;;;;;;192.75;152.73;;;;;;;14.49;26.68;95591.91;4961252;28;20495;-65
2022/01/13 06:15:09;;;;;;;194.40;152.82;;;;;;;14.50;26.91;95595.38;4967527;28;20367;-65
2022/01/13 06:17:36;;;;;;;193.90;154.80;;;;;;;14.47;26.74;95591.53;4962386;28;20050;-66
2022/01/13 06:20:07;;;;;;;193.68;155.13;;;;;;;14.49;26.78;95596.53;4963851;28;20047;-65
2022/01/13 06:22:32;;;;;;;192.38;152.43;;;;;;;14.49;26.75;95596.53;4969383;28;20149;-65
2022/01/13 06:24:58;;;;;;;193.75;154.15;;;;;;;14.48;26.54;95590.38;4966681;28;20368;-65
2022/01/13 06:27:23;;;;;;;196.38;155.48;;;;;;;14.49;26.55;95604.63;4968609;28;20042;-65
2022/01/13 06:29:51;;;;;;;194.88;153.93;;;;;;;14.48;26.80;95600.38;4968020;28;20193;-65
2022/01/13 06:32:18;;;;;;;192.98;152.93;;;;;;;14.49;26.54;95612.69;4967646;28;20077;-65
2022/01/13 06:34:43;;;;;;;201.90;160.07;;;;;;;14.49;26.79;95616.16;4967275;28;20157;-66
2022/01/13 06:37:09;;;;;;;186.85;149.20;;;;;;;14.52;26.83;95619.22;4971696;28;20126;-66
2022/01/13 06:39:35;;;;;;;194.30;154.77;;;;;;;14.50;26.74;95616.91;4972705;28;20045;-65
2022/01/13 06:42:00;;;;;;;192.95;153.50;;;;;;;14.50;26.64;95627.69;4970833;28;20051;-65
2022/01/13 06:44:26;;;;;;;199.30;157.55;;;;;;;14.49;26.62;95629.59;4970261;28;20095;-65
2022/01/13 06:46:51;;;;;;;191.30;151.32;;;;;;;14.50;26.52;95625.00;4970609;28;20490;-65
2022/01/13 06:49:17;;;;;;;195.90;154.82;;;;;;;14.49;26.50;95626.91;4972048;28;20038;-65
2022/01/13 06:51:42;;;;;;;190.48;150.50;;;;;;;14.49;26.61;95628.84;4972389;28;20039;-65
2022/01/13 06:54:08;;;;;;;193.35;153.65;;;;;;;14.50;26.58;95633.06;4970721;28;20046;-65
2022/01/13 06:56:33;;;;;;;190.07;151.45;;;;;;;14.49;26.62;95626.91;4968191;28;20050;-65
2022/01/13 06:59:04;;;;;;;195.07;153.30;;;;;;;14.50;26.59;95633.84;4968991;28;20050;-65
2022/01/13 07:01:30;;;;;;;199.88;157.80;;;;;;;14.52;26.60;95640.75;4969842;28;20042;-65
2022/01/13 07:03:55;;;;;;;193.35;151.68;;;;;;;14.50;26.40;95646.53;4971036;28;20165;-65
2022/01/13 07:06:21;;;;;;;196.73;154.82;;;;;;;14.52;26.53;95649.59;4966913;28;20058;-65
2022/01/13 07:08:46;;;;;;;196.85;156.15;;;;;;;14.49;26.22;95647.69;4966220;28;20038;-65
2022/01/13 07:11:12;;;;;;;195.70;155.40;;;;;;;14.50;26.51;95652.69;4968523;28;20192;-65
2022/01/13 07:13:37;;;;;;;201.23;159.20;;;;;;;14.49;26.65;95653.84;4984569;28;20058;-65
2022/01/13 07:16:03;;;;;;;189.82;149.60;;;;;;;14.49;26.67;95655.75;4969530;28;20438;-65
2022/01/13 07:18:30;;;;;;;196.27;154.60;;;;;;;14.49;26.75;95663.84;4969415;28;20495;-65
2022/01/13 07:20:56;;;;;;;193.35;154.77;;;;;;;14.49;26.52;95663.84;4971848;28;20046;-65
2022/01/13 07:23:22;;;;;;;192.98;153.77;;;;;;;14.47;26.68;95664.22;4969712;28;20718;-65
2022/01/13 07:25:48;;;;;;;202.35;161.50;;;;;;;14.48;26.59;95665.75;4967483;28;20175;-65
2022/01/13 07:28:13;;;;;;;196.63;157.00;;;;;;;14.48;26.69;95663.06;4966742;28;20480;-65
2022/01/13 07:30:39;;;;;;;196.55;156.73;;;;;;;14.47;26.49;95661.53;4969857;28;20069;-65
2022/01/13 07:33:04;;;;;;;192.55;153.68;;;;;;;14.47;26.74;95652.69;4968444;28;20074;-65
2022/01/13 07:35:30;;;;;;;200.60;159.00;;;;;;;14.47;26.71;95656.16;4970207;28;20042;-65
2022/01/13 07:37:56;;;;;;;190.02;151.65;;;;;;;14.47;26.66;95658.84;4970908;28;20431;-65
2022/01/13 07:40:21;;;;;;;198.18;157.07;;;;;;;14.47;26.71;95661.53;4969109;28;20065;-65
2022/01/13 07:42:47;;;;;;;193.15;153.25;;;;;;;14.47;26.45;95650.75;4969381;28;20045;-65
2022/01/13 07:45:15;;;;;;;199.85;158.15;;;;;;;14.46;26.65;95657.31;4967245;28;20061;-66
2022/01/13 07:47:41;;;;;;;197.18;156.13;;;;;;;14.46;26.73;95654.63;4971274;28;20415;-65
2022/01/13 07:50:10;;;;;;;196.68;157.07;;;;;;;14.46;26.41;95643.09;4968508;28;20051;-66
2022/01/13 07:52:35;;;;;;;194.10;155.02;;;;;;;14.47;26.68;95644.63;4967038;28;20050;-66
2022/01/13 07:55:02;;;;;;;196.50;154.80;;;;;;;14.48;26.82;95638.06;4968009;28;20053;-65
2022/01/13 07:57:27;;;;;;;192.57;153.18;;;;;;;14.46;26.45;95635.78;4965629;28;20038;-67
2022/01/13 07:59:53;;;;;;;192.77;154.73;;;;;;;14.48;26.72;95638.06;4968532;28;20082;-66
2022/01/13 08:02:19;;;;;;;198.93;157.48;;;;;;;14.48;26.45;95638.06;4968052;28;20047;-66
2022/01/13 08:04:45;;;;;;;197.30;154.65;;;;;;;14.49;26.52;95645.75;4967975;28;20125;-65
2022/01/13 08:07:11;;;;;;;200.77;159.05;;;;;;;14.49;26.54;95632.31;4976828;28;20077;-66
2022/01/13 08:09:36;;;;;;;192.02;151.52;;;;;;;14.53;26.67;95636.91;4968741;28;20058;-66
2022/01/13 08:12:02;;;;;;;196.00;155.27;;;;;;;14.53;26.58;95632.28;4970669;28;20760;-67
2022/01/13 08:14:28;;;;;;;202.98;162.43;;;;;;;14.53;26.23;95634.22;4967215;28;20713;-66
2022/01/13 08:16:57;;;;;;;190.85;152.48;;;;;;;14.55;26.44;95639.97;4966408;28;20047;-66
2022/01/13 08:22:06;;;;;;;190.52;152.05;;;;;;;14.56;26.62;95644.19;4969688;28;22516;-66
2022/01/13 08:24:32;;;;;;;198.25;158.55;;;;;;;14.55;26.51;95643.44;4970371;28;20050;-66
2022/01/13 08:26:57;;;;;;;194.30;154.50;;;;;;;14.57;26.39;95657.28;4966553;28;20503;-66
2022/01/13 08:29:23;;;;;;;198.18;158.45;;;;;;;14.58;26.24;95666.13;4967036;28;20579;-65
2022/01/13 08:31:49;;;;;;;188.40;149.30;;;;;;;14.57;26.31;95665.34;4967048;28;20058;-66
2022/01/13 08:34:16;;;;;;;196.73;156.70;;;;;;;14.59;26.52;95673.81;4974289;28;20069;-66
2022/01/13 08:36:42;;;;;;;193.00;153.82;;;;;;;14.59;26.38;95684.56;4969846;28;20058;-67
2022/01/13 08:39:08;;;;;;;193.82;155.07;;;;;;;14.59;26.52;95679.19;4962950;28;20062;-66
2022/01/13 08:41:34;;;;;;;192.13;152.80;;;;;;;14.58;26.43;95682.25;4967907;28;20474;-66
2022/01/13 08:43:59;;;;;;;194.60;156.38;;;;;;;14.59;26.51;95675.72;4969312;28;20073;-66
2022/01/13 08:46:26;;;;;;;193.55;154.90;;;;;;;14.59;26.57;95668.41;4966261;28;20053;-66
2022/01/13 08:48:52;;;;;;;193.75;153.95;;;;;;;14.59;26.65;95679.19;4967535;28;20050;-67
2022/01/13 08:51:18;;;;;;;203.45;160.52;;;;;;;14.61;26.44;95692.25;4966347;28;21943;-67
2022/01/13 08:53:45;;;;;;;199.48;157.57;;;;;;;14.61;26.42;95692.25;4967734;28;20054;-66
2022/01/13 08:56:11;;;;;;;194.45;154.40;;;;;;;14.61;26.60;95689.56;4968526;28;20050;-67
2022/01/13 08:58:37;;;;;;;195.25;155.05;;;;;;;14.62;26.44;95683.03;4964889;28;20104;-66
2022/01/13 09:01:03;;;;;;;191.20;153.02;;;;;;;14.61;26.50;95682.25;4968155;28;20153;-66
2022/01/13 09:03:28;;;;;;;195.43;155.80;;;;;;;14.61;26.40;95682.25;4967768;28;21890;-65
2022/01/13 09:05:54;;;;;;;218.10;173.63;;;;;;;14.61;26.52;95686.88;4968721;28;20042;-65
2022/01/13 09:08:20;;;;;;;195.68;156.13;;;;;;;14.61;26.47;95684.19;4969010;28;20058;-65
2022/01/13 09:10:46;;;;;;;193.20;153.02;;;;;;;14.61;26.43;95676.88;4967166;28;20399;-65
2022/01/13 09:13:15;;;;;;;196.32;156.63;;;;;;;14.60;26.57;95678.03;4967168;28;20466;-65
2022/01/13 09:15:46;;;;;;;189.43;151.55;;;;;;;14.59;26.54;95679.19;4966563;28;20074;-65
2022/01/13 09:18:19;;;;;;;185.48;149.07;;;;;;;14.61;26.70;95678.78;4969504;28;20822;-66
2022/01/13 09:20:46;;;;;;;192.73;153.27;;;;;;;14.58;26.57;95683.03;4968955;28;20480;-65
2022/01/13 09:23:13;;;;;;;194.80;154.45;;;;;;;14.58;26.71;95688.41;4967473;28;20065;-65
2022/01/13 09:25:39;;;;;;;195.48;155.10;;;;;;;14.59;26.48;95703.41;4970416;28;20510;-65
2022/01/13 09:28:07;;;;;;;190.95;152.60;;;;;;;14.58;26.76;95701.13;4969379;28;20046;-65
2022/01/13 09:30:33;;;;;;;190.80;152.90;;;;;;;14.58;26.70;95701.88;4970204;28;20055;-65
2022/01/13 09:32:59;;;;;;;194.40;154.15;;;;;;;14.56;26.78;95706.88;4972482;28;20057;-65
2022/01/13 09:35:25;;;;;;;204.57;164.10;;;;;;;14.57;26.64;95708.41;4970400;28;20181;-66
2022/01/13 09:37:51;;;;;;;195.10;154.05;;;;;;;14.57;26.75;95697.66;4970832;28;20134;-65
2022/01/13 09:40:16;;;;;;;196.30;155.70;;;;;;;14.56;26.75;95695.34;4964632;28;20058;-65
2022/01/13 09:42:44;;;;;;;189.85;150.18;;;;;;;14.55;26.85;95699.19;4968516;28;20565;-65
2022/01/13 09:45:12;;;;;;;195.95;155.55;;;;;;;14.56;26.90;95692.66;4969555;28;20178;-65
2022/01/13 09:47:39;;;;;;;197.90;157.35;;;;;;;14.53;26.63;95702.28;4968323;28;20062;-65
2022/01/13 09:50:10;;;;;;;202.75;160.70;;;;;;;14.55;26.92;95707.28;4965740;28;20051;-65
2022/01/13 09:52:40;;;;;;;192.05;153.18;;;;;;;14.53;26.94;95694.19;4968483;28;20591;-65
2022/01/13 09:55:07;;;;;;;193.75;153.45;;;;;;;14.54;26.77;95697.66;4965608;28;20062;-65
2022/01/13 09:57:33;;;;;;;194.30;154.38;;;;;;;14.54;26.84;95701.13;4964753;28;20074;-65
2022/01/13 10:00:00;;;;;;;195.40;155.63;;;;;;;14.54;26.77;95697.66;4967053;28;20096;-65
2022/01/13 10:02:29;;;;;;;188.98;151.35;;;;;;;14.52;26.92;95689.97;4968148;28;20103;-65
2022/01/13 10:04:56;;;;;;;193.43;153.52;;;;;;;14.49;27.02;95690.75;4965124;28;20142;-65
2022/01/13 10:07:41;;;;;;;200.35;158.82;;;;;;;14.52;27.08;95691.91;4965800;28;20043;-65
2022/01/13 10:10:16;;;;;;;198.35;156.20;;;;;;;14.50;27.04;95684.97;4972595;28;20130;-65
2022/01/13 10:12:48;;;;;;;198.18;155.75;;;;;;;14.50;26.95;95674.22;4972017;28;20075;-65
2022/01/13 10:18:00;;;;;;;198.13;156.10;;;;;;;14.50;26.71;95682.28;4970749;28;20050;-65
2022/01/13 10:20:27;;;;;;;191.90;152.57;;;;;;;14.49;26.99;95672.69;4969077;28;20043;-65
2022/01/13 10:22:53;;;;;;;196.10;155.27;;;;;;;14.49;27.01;95675.38;4966207;28;20200;-65
2022/01/13 10:25:43;;;;;;;210.43;167.52;;;;;;;14.50;26.83;95674.22;4967836;28;20043;-67
2022/01/13 10:28:22;;;;;;;193.68;152.73;;;;;;;14.50;26.91;95674.22;4970561;28;20054;-66
2022/01/13 10:30:50;;;;;;;206.13;163.40;;;;;;;14.52;27.05;95683.81;4967369;28;20050;-67
2022/01/13 10:33:24;;;;;;;194.07;153.30;;;;;;;14.52;26.90;95689.22;4966812;28;20042;-67
2022/01/13 10:35:52;;;;;;;191.52;153.20;;;;;;;14.53;27.04;95691.50;4967958;28;20050;-66
2022/01/13 10:38:20;;;;;;;196.32;156.52;;;;;;;14.53;27.18;95699.59;4972086;28;20046;-66
2022/01/13 10:40:52;;;;;;;195.55;153.45;;;;;;;14.53;26.90;95698.81;4963038;28;20145;-66
2022/01/13 10:43:23;;;;;;;201.88;160.35;;;;;;;14.53;26.93;95690.75;4985779;28;20074;-66
2022/01/13 10:45:55;;;;;;;203.50;160.70;;;;;;;14.52;26.91;95692.66;4965312;28;20132;-66
2022/01/13 10:48:26;;;;;;;207.98;164.07;;;;;;;14.48;26.91;95684.59;4961980;28;20039;-66
2022/01/13 10:51:02;;;;;;;206.27;163.05;;;;;;;14.49;27.05;95691.53;4961994;28;20085;-66
2022/01/13 10:53:37;;;;;;;210.43;164.27;;;;;;;14.50;27.38;95687.69;4965660;28;20060;-66
2022/01/13 10:56:06;;;;;;;212.15;167.45;;;;;;;14.52;27.04;95684.59;4967927;28;20394;-66
2022/01/13 10:58:32;;;;;;;189.27;149.95;;;;;;;14.52;27.11;95684.59;4976789;28;20485;-66
2022/01/13 11:01:00;;;;;;;200.35;158.40;;;;;;;14.52;26.97;95689.97;4962007;28;20054;-66
2022/01/13 11:03:28;;;;;;;198.93;157.50;;;;;;;14.54;27.04;95682.28;4958238;28;20054;-65
2022/01/13 11:06:05;;;;;;;193.48;153.70;;;;;;;14.53;27.19;95680.75;4964207;28;20050;-65
2022/01/13 11:08:41;;;;;;;193.90;152.80;;;;;;;14.53;27.07;95671.91;4968590;28;20058;-65
2022/01/13 11:11:21;;;;;;;197.52;156.90;;;;;;;14.54;27.20;95673.44;4969967;28;21029;-65
2022/01/13 11:13:57;;;;;;;193.65;153.38;;;;;;;14.53;26.91;95669.97;4965269;28;20686;-66
2022/01/13 11:16:24;;;;;;;196.68;155.73;;;;;;;14.53;27.03;95672.66;4966634;28;20138;-65
2022/01/13 11:18:51;;;;;;;192.40;152.43;;;;;;;14.54;26.93;95670.75;4965796;28;20395;-66
2022/01/13 11:21:16;;;;;;;191.32;151.43;;;;;;;14.53;27.05;95661.13;4966356;28;20459;-65
2022/01/13 11:23:45;;;;;;;194.82;156.10;;;;;;;14.52;27.20;95660.38;4966149;28;20062;-66
2022/01/13 11:26:12;;;;;;;202.07;161.15;;;;;;;14.54;27.25;95654.59;4966722;28;20120;-66
2022/01/13 11:28:39;;;;;;;193.68;153.82;;;;;;;14.55;27.11;95648.03;4969907;28;20050;-66
2022/01/13 11:31:07;;;;;;;192.07;154.48;;;;;;;14.54;27.24;95649.22;4967369;28;20055;-66